sensor_id;sensor_type;location;lat;lon;timestamp;P1;durP1;ratioP1;P2;durP2;ratioP2
9304;SDS011;4690;52.422;13.486;2023-12-20T00:09:30;15.73;;;13.10;;
9304;SDS011;4690;52.422;13.486;2023-12-20T00:11:56;12.30;;;10.93;;
9304;SDS011;4690;52.422;13.486;2023-12-20T00:14:22;14.13;;;12.20;;
9304;SDS011;4690;52.422;13.486;2023-12-20T00:16:48;16.73;;;12.67;;
9304;SDS011;4690;52.422;13.486;2023-12-20T00:19:13;12.97;;;11.67;;
9304;SDS011;4690;52.422;13.486;2023-12-20T00:21:39;14.53;;;12.17;;
9304;SDS011;4690;52.422;13.486;2023-12-20T00:24:05;13.33;;;11.93;;
9304;SDS011;4690;52.422;13.486;2023-12-20T00:26:31;11.90;;;10.67;;
9304;SDS011;4690;52.422;13.486;2023-12-20T00:28:56;17.57;;;13.10;;
9304;SDS011;4690;52.422;13.486;2023-12-20T00:31:22;13.83;;;11.97;;
9304;SDS011;4690;52.422;13.486;2023-12-20T00:33:48;10.37;;;9.43;;
9304;SDS011;4690;52.422;13.486;2023-12-20T00:36:13;13.37;;;11.67;;
9304;SDS011;4690;52.422;13.486;2023-12-20T00:38:39;14.37;;;12.07;;
9304;SDS011;4690;52.422;13.486;2023-12-20T00:41:05;13.70;;;11.53;;
9304;SDS011;4690;52.422;13.486;2023-12-20T00:43:31;13.10;;;11.13;;
9304;SDS011;4690;52.422;13.486;2023-12-20T00:45:57;12.67;;;11.07;;
9304;SDS011;4690;52.422;13.486;2023-12-20T00:48:24;12.70;;;11.20;;
9304;SDS011;4690;52.422;13.486;2023-12-20T00:50:52;11.10;;;9.90;;
9304;SDS011;4690;52.422;13.486;2023-12-20T00:53:18;14.03;;;11.43;;
9304;SDS011;4690;52.422;13.486;2023-12-20T00:55:44;14.47;;;12.03;;
9304;SDS011;4690;52.422;13.486;2023-12-20T00:58:10;12.27;;;10.63;;
9304;SDS011;4690;52.422;13.486;2023-12-20T01:00:36;12.17;;;10.67;;
9304;SDS011;4690;52.422;13.486;2023-12-20T01:03:02;13.30;;;10.57;;
9304;SDS011;4690;52.422;13.486;2023-12-20T01:05:27;18.00;;;12.87;;
9304;SDS011;4690;52.422;13.486;2023-12-20T01:07:53;13.50;;;11.00;;
9304;SDS011;4690;52.422;13.486;2023-12-20T01:10:19;11.60;;;10.40;;
9304;SDS011;4690;52.422;13.486;2023-12-20T01:12:45;11.70;;;10.47;;
9304;SDS011;4690;52.422;13.486;2023-12-20T01:15:11;12.97;;;10.90;;
9304;SDS011;4690;52.422;13.486;2023-12-20T01:17:37;11.67;;;10.40;;
9304;SDS011;4690;52.422;13.486;2023-12-20T01:20:02;11.23;;;10.10;;
9304;SDS011;4690;52.422;13.486;2023-12-20T01:22:28;15.27;;;12.33;;
9304;SDS011;4690;52.422;13.486;2023-12-20T01:24:54;11.07;;;9.93;;
9304;SDS011;4690;52.422;13.486;2023-12-20T01:27:20;15.60;;;12.47;;
9304;SDS011;4690;52.422;13.486;2023-12-20T01:29:46;14.40;;;11.30;;
9304;SDS011;4690;52.422;13.486;2023-12-20T01:32:12;13.17;;;11.40;;
9304;SDS011;4690;52.422;13.486;2023-12-20T01:34:37;14.37;;;12.40;;
9304;SDS011;4690;52.422;13.486;2023-12-20T01:37:03;13.70;;;11.30;;
9304;SDS011;4690;52.422;13.486;2023-12-20T01:39:29;12.83;;;11.13;;
9304;SDS011;4690;52.422;13.486;2023-12-20T01:41:55;13.97;;;11.70;;
9304;SDS011;4690;52.422;13.486;2023-12-20T01:44:20;14.43;;;11.63;;
9304;SDS011;4690;52.422;13.486;2023-12-20T01:46:46;21.33;;;14.13;;
9304;SDS011;4690;52.422;13.486;2023-12-20T01:49:13;12.43;;;11.13;;
9304;SDS011;4690;52.422;13.486;2023-12-20T01:51:40;20.33;;;13.40;;
9304;SDS011;4690;52.422;13.486;2023-12-20T01:54:06;16.47;;;12.60;;
9304;SDS011;4690;52.422;13.486;2023-12-20T01:56:32;12.27;;;10.57;;
9304;SDS011;4690;52.422;13.486;2023-12-20T01:58:58;10.07;;;9.17;;
9304;SDS011;4690;52.422;13.486;2023-12-20T02:01:26;10.20;;;9.23;;
9304;SDS011;4690;52.422;13.486;2023-12-20T02:03:53;11.70;;;10.50;;
9304;SDS011;4690;52.422;13.486;2023-12-20T02:06:21;10.00;;;9.00;;
9304;SDS011;4690;52.422;13.486;2023-12-20T02:08:50;11.67;;;9.83;;
9304;SDS011;4690;52.422;13.486;2023-12-20T02:11:16;9.53;;;8.63;;
9304;SDS011;4690;52.422;13.486;2023-12-20T02:13:41;11.87;;;10.20;;
9304;SDS011;4690;52.422;13.486;2023-12-20T02:16:07;13.67;;;10.43;;
9304;SDS011;4690;52.422;13.486;2023-12-20T02:18:33;9.17;;;8.37;;
9304;SDS011;4690;52.422;13.486;2023-12-20T02:20:59;11.27;;;9.60;;
9304;SDS011;4690;52.422;13.486;2023-12-20T02:23:25;11.80;;;9.83;;
9304;SDS011;4690;52.422;13.486;2023-12-20T02:25:50;9.00;;;8.20;;
9304;SDS011;4690;52.422;13.486;2023-12-20T02:28:16;10.23;;;9.17;;
9304;SDS011;4690;52.422;13.486;2023-12-20T02:30:42;11.90;;;9.97;;
9304;SDS011;4690;52.422;13.486;2023-12-20T02:33:08;9.93;;;8.93;;
9304;SDS011;4690;52.422;13.486;2023-12-20T02:35:37;13.50;;;10.97;;
9304;SDS011;4690;52.422;13.486;2023-12-20T02:38:03;10.90;;;9.80;;
9304;SDS011;4690;52.422;13.486;2023-12-20T02:40:29;13.37;;;11.13;;
9304;SDS011;4690;52.422;13.486;2023-12-20T02:42:54;14.23;;;11.87;;
9304;SDS011;4690;52.422;13.486;2023-12-20T02:45:20;13.20;;;11.07;;
9304;SDS011;4690;52.422;13.486;2023-12-20T02:47:46;13.73;;;11.97;;
9304;SDS011;4690;52.422;13.486;2023-12-20T02:50:11;12.73;;;11.27;;
9304;SDS011;4690;52.422;13.486;2023-12-20T02:52:37;14.53;;;12.13;;
9304;SDS011;4690;52.422;13.486;2023-12-20T02:55:03;16.20;;;13.17;;
9304;SDS011;4690;52.422;13.486;2023-12-20T02:57:29;17.63;;;13.13;;
9304;SDS011;4690;52.422;13.486;2023-12-20T02:59:55;14.00;;;12.40;;
9304;SDS011;4690;52.422;13.486;2023-12-20T03:02:20;11.10;;;10.03;;
9304;SDS011;4690;52.422;13.486;2023-12-20T03:04:46;18.77;;;14.13;;
9304;SDS011;4690;52.422;13.486;2023-12-20T03:07:12;14.77;;;12.73;;
9304;SDS011;4690;52.422;13.486;2023-12-20T03:09:37;15.57;;;12.47;;
9304;SDS011;4690;52.422;13.486;2023-12-20T03:12:03;20.43;;;14.77;;
9304;SDS011;4690;52.422;13.486;2023-12-20T03:14:29;16.50;;;13.67;;
9304;SDS011;4690;52.422;13.486;2023-12-20T03:16:55;17.23;;;13.73;;
9304;SDS011;4690;52.422;13.486;2023-12-20T03:19:21;14.73;;;12.63;;
9304;SDS011;4690;52.422;13.486;2023-12-20T03:21:46;17.27;;;12.83;;
9304;SDS011;4690;52.422;13.486;2023-12-20T03:24:12;15.83;;;12.33;;
9304;SDS011;4690;52.422;13.486;2023-12-20T03:26:38;24.53;;;14.97;;
9304;SDS011;4690;52.422;13.486;2023-12-20T03:29:04;16.37;;;12.53;;
9304;SDS011;4690;52.422;13.486;2023-12-20T03:31:29;17.43;;;12.07;;
9304;SDS011;4690;52.422;13.486;2023-12-20T03:33:55;15.40;;;10.93;;
9304;SDS011;4690;52.422;13.486;2023-12-20T03:36:21;18.10;;;12.43;;
9304;SDS011;4690;52.422;13.486;2023-12-20T03:38:46;15.20;;;12.03;;
9304;SDS011;4690;52.422;13.486;2023-12-20T03:41:12;14.23;;;10.83;;
9304;SDS011;4690;52.422;13.486;2023-12-20T03:43:38;17.23;;;10.57;;
9304;SDS011;4690;52.422;13.486;2023-12-20T03:46:04;22.03;;;12.47;;
9304;SDS011;4690;52.422;13.486;2023-12-20T03:48:30;23.70;;;12.40;;
9304;SDS011;4690;52.422;13.486;2023-12-20T03:50:56;16.67;;;10.27;;
9304;SDS011;4690;52.422;13.486;2023-12-20T03:53:22;17.70;;;11.00;;
9304;SDS011;4690;52.422;13.486;2023-12-20T03:55:48;18.10;;;10.90;;
9304;SDS011;4690;52.422;13.486;2023-12-20T03:58:14;18.00;;;11.00;;
9304;SDS011;4690;52.422;13.486;2023-12-20T04:00:39;22.90;;;11.93;;
9304;SDS011;4690;52.422;13.486;2023-12-20T04:03:05;17.30;;;9.73;;
9304;SDS011;4690;52.422;13.486;2023-12-20T04:05:32;20.07;;;10.33;;
9304;SDS011;4690;52.422;13.486;2023-12-20T04:07:59;17.33;;;9.70;;
9304;SDS011;4690;52.422;13.486;2023-12-20T04:10:26;17.97;;;9.07;;
9304;SDS011;4690;52.422;13.486;2023-12-20T04:12:52;17.83;;;9.67;;
9304;SDS011;4690;52.422;13.486;2023-12-20T04:15:19;21.43;;;8.47;;
9304;SDS011;4690;52.422;13.486;2023-12-20T04:17:45;20.37;;;8.90;;
9304;SDS011;4690;52.422;13.486;2023-12-20T04:20:11;15.37;;;8.63;;
9304;SDS011;4690;52.422;13.486;2023-12-20T04:22:37;19.23;;;8.37;;
9304;SDS011;4690;52.422;13.486;2023-12-20T04:25:02;17.83;;;8.80;;
9304;SDS011;4690;52.422;13.486;2023-12-20T04:27:28;17.73;;;8.07;;
9304;SDS011;4690;52.422;13.486;2023-12-20T04:29:54;21.77;;;8.43;;
9304;SDS011;4690;52.422;13.486;2023-12-20T04:32:20;12.00;;;7.23;;
9304;SDS011;4690;52.422;13.486;2023-12-20T04:34:46;18.23;;;7.40;;
9304;SDS011;4690;52.422;13.486;2023-12-20T04:37:11;21.17;;;7.50;;
9304;SDS011;4690;52.422;13.486;2023-12-20T04:39:37;17.60;;;8.03;;
9304;SDS011;4690;52.422;13.486;2023-12-20T04:42:03;16.33;;;7.97;;
9304;SDS011;4690;52.422;13.486;2023-12-20T04:44:29;18.83;;;8.40;;
9304;SDS011;4690;52.422;13.486;2023-12-20T04:46:55;18.63;;;9.30;;
9304;SDS011;4690;52.422;13.486;2023-12-20T04:49:21;23.63;;;10.43;;
9304;SDS011;4690;52.422;13.486;2023-12-20T04:51:47;17.90;;;9.63;;
9304;SDS011;4690;52.422;13.486;2023-12-20T04:54:13;18.60;;;9.60;;
9304;SDS011;4690;52.422;13.486;2023-12-20T04:56:38;20.27;;;9.37;;
9304;SDS011;4690;52.422;13.486;2023-12-20T04:59:04;15.50;;;8.83;;
9304;SDS011;4690;52.422;13.486;2023-12-20T05:01:30;22.10;;;10.00;;
9304;SDS011;4690;52.422;13.486;2023-12-20T05:03:56;17.67;;;8.20;;
9304;SDS011;4690;52.422;13.486;2023-12-20T05:06:22;16.73;;;7.97;;
9304;SDS011;4690;52.422;13.486;2023-12-20T05:08:47;16.07;;;7.93;;
9304;SDS011;4690;52.422;13.486;2023-12-20T05:11:13;16.67;;;7.43;;
9304;SDS011;4690;52.422;13.486;2023-12-20T05:13:40;16.20;;;7.03;;
9304;SDS011;4690;52.422;13.486;2023-12-20T05:16:06;17.33;;;6.43;;
9304;SDS011;4690;52.422;13.486;2023-12-20T05:18:31;20.43;;;6.70;;
9304;SDS011;4690;52.422;13.486;2023-12-20T05:20:57;15.70;;;5.90;;
9304;SDS011;4690;52.422;13.486;2023-12-20T05:23:23;21.00;;;6.10;;
9304;SDS011;4690;52.422;13.486;2023-12-20T05:25:49;12.73;;;5.30;;
9304;SDS011;4690;52.422;13.486;2023-12-20T05:28:15;22.33;;;6.10;;
9304;SDS011;4690;52.422;13.486;2023-12-20T05:30:40;21.70;;;6.67;;
9304;SDS011;4690;52.422;13.486;2023-12-20T05:33:06;18.27;;;5.23;;
9304;SDS011;4690;52.422;13.486;2023-12-20T05:35:32;16.83;;;5.43;;
9304;SDS011;4690;52.422;13.486;2023-12-20T05:37:58;15.90;;;4.90;;
9304;SDS011;4690;52.422;13.486;2023-12-20T05:40:23;23.17;;;5.17;;
9304;SDS011;4690;52.422;13.486;2023-12-20T05:42:49;18.80;;;5.17;;
9304;SDS011;4690;52.422;13.486;2023-12-20T05:45:15;17.40;;;4.93;;
9304;SDS011;4690;52.422;13.486;2023-12-20T05:47:41;20.53;;;5.20;;
9304;SDS011;4690;52.422;13.486;2023-12-20T05:50:06;14.20;;;4.80;;
9304;SDS011;4690;52.422;13.486;2023-12-20T05:52:32;14.33;;;4.40;;
9304;SDS011;4690;52.422;13.486;2023-12-20T05:54:58;17.47;;;5.10;;
9304;SDS011;4690;52.422;13.486;2023-12-20T05:57:26;12.70;;;4.43;;
9304;SDS011;4690;52.422;13.486;2023-12-20T05:59:52;15.33;;;4.80;;
9304;SDS011;4690;52.422;13.486;2023-12-20T06:02:18;15.77;;;4.30;;
9304;SDS011;4690;52.422;13.486;2023-12-20T06:04:44;17.60;;;4.80;;
9304;SDS011;4690;52.422;13.486;2023-12-20T06:07:13;13.83;;;4.37;;
9304;SDS011;4690;52.422;13.486;2023-12-20T06:09:40;15.27;;;4.90;;
9304;SDS011;4690;52.422;13.486;2023-12-20T06:12:06;19.73;;;4.90;;
9304;SDS011;4690;52.422;13.486;2023-12-20T06:14:33;12.43;;;4.30;;
9304;SDS011;4690;52.422;13.486;2023-12-20T06:17:00;16.43;;;4.23;;
9304;SDS011;4690;52.422;13.486;2023-12-20T06:19:26;17.87;;;4.90;;
9304;SDS011;4690;52.422;13.486;2023-12-20T06:21:52;18.63;;;4.73;;
9304;SDS011;4690;52.422;13.486;2023-12-20T06:24:18;18.60;;;4.37;;
9304;SDS011;4690;52.422;13.486;2023-12-20T06:26:44;18.50;;;4.57;;
9304;SDS011;4690;52.422;13.486;2023-12-20T06:29:10;12.23;;;4.17;;
9304;SDS011;4690;52.422;13.486;2023-12-20T06:31:37;12.77;;;4.67;;
9304;SDS011;4690;52.422;13.486;2023-12-20T06:34:03;21.13;;;5.10;;
9304;SDS011;4690;52.422;13.486;2023-12-20T06:36:28;14.37;;;4.47;;
9304;SDS011;4690;52.422;13.486;2023-12-20T06:38:54;14.77;;;4.60;;
9304;SDS011;4690;52.422;13.486;2023-12-20T06:41:20;18.63;;;5.47;;
9304;SDS011;4690;52.422;13.486;2023-12-20T06:43:45;16.40;;;5.57;;
9304;SDS011;4690;52.422;13.486;2023-12-20T06:46:12;11.93;;;4.37;;
9304;SDS011;4690;52.422;13.486;2023-12-20T06:48:38;12.90;;;4.77;;
9304;SDS011;4690;52.422;13.486;2023-12-20T06:51:05;14.80;;;5.37;;
9304;SDS011;4690;52.422;13.486;2023-12-20T06:53:31;16.20;;;4.80;;
9304;SDS011;4690;52.422;13.486;2023-12-20T06:55:57;14.07;;;4.90;;
9304;SDS011;4690;52.422;13.486;2023-12-20T06:58:22;15.00;;;4.63;;
9304;SDS011;4690;52.422;13.486;2023-12-20T07:00:48;20.67;;;5.07;;
9304;SDS011;4690;52.422;13.486;2023-12-20T07:03:16;20.67;;;5.40;;
9304;SDS011;4690;52.422;13.486;2023-12-20T07:05:42;13.57;;;4.83;;
9304;SDS011;4690;52.422;13.486;2023-12-20T07:08:09;14.17;;;4.53;;
9304;SDS011;4690;52.422;13.486;2023-12-20T07:10:35;10.53;;;4.80;;
9304;SDS011;4690;52.422;13.486;2023-12-20T07:13:01;17.53;;;5.20;;
9304;SDS011;4690;52.422;13.486;2023-12-20T07:15:27;14.17;;;5.50;;
9304;SDS011;4690;52.422;13.486;2023-12-20T07:17:54;17.60;;;5.10;;
9304;SDS011;4690;52.422;13.486;2023-12-20T07:20:20;14.13;;;5.37;;
9304;SDS011;4690;52.422;13.486;2023-12-20T07:22:46;14.47;;;5.13;;
9304;SDS011;4690;52.422;13.486;2023-12-20T07:25:11;13.20;;;4.67;;
9304;SDS011;4690;52.422;13.486;2023-12-20T07:27:38;18.13;;;4.80;;
9304;SDS011;4690;52.422;13.486;2023-12-20T07:30:03;18.03;;;5.17;;
9304;SDS011;4690;52.422;13.486;2023-12-20T07:32:30;14.37;;;4.77;;
9304;SDS011;4690;52.422;13.486;2023-12-20T07:34:57;16.30;;;4.97;;
9304;SDS011;4690;52.422;13.486;2023-12-20T07:37:22;14.80;;;4.70;;
9304;SDS011;4690;52.422;13.486;2023-12-20T07:39:48;15.87;;;4.80;;
9304;SDS011;4690;52.422;13.486;2023-12-20T07:42:14;12.17;;;4.43;;
9304;SDS011;4690;52.422;13.486;2023-12-20T07:44:39;12.13;;;4.27;;
9304;SDS011;4690;52.422;13.486;2023-12-20T07:47:05;15.13;;;4.23;;
9304;SDS011;4690;52.422;13.486;2023-12-20T07:49:31;13.00;;;3.97;;
9304;SDS011;4690;52.422;13.486;2023-12-20T07:51:57;18.83;;;4.30;;
9304;SDS011;4690;52.422;13.486;2023-12-20T07:54:23;14.10;;;3.83;;
9304;SDS011;4690;52.422;13.486;2023-12-20T07:56:49;11.97;;;3.70;;
9304;SDS011;4690;52.422;13.486;2023-12-20T07:59:15;10.73;;;3.63;;
9304;SDS011;4690;52.422;13.486;2023-12-20T08:01:40;9.60;;;3.40;;
9304;SDS011;4690;52.422;13.486;2023-12-20T08:04:07;8.83;;;3.30;;
9304;SDS011;4690;52.422;13.486;2023-12-20T08:06:33;13.20;;;3.50;;
9304;SDS011;4690;52.422;13.486;2023-12-20T08:08:59;9.80;;;3.40;;
9304;SDS011;4690;52.422;13.486;2023-12-20T08:11:25;11.63;;;3.40;;
9304;SDS011;4690;52.422;13.486;2023-12-20T08:13:51;11.87;;;3.40;;
9304;SDS011;4690;52.422;13.486;2023-12-20T08:16:16;11.20;;;3.50;;
9304;SDS011;4690;52.422;13.486;2023-12-20T08:18:42;11.87;;;3.67;;
9304;SDS011;4690;52.422;13.486;2023-12-20T08:21:09;13.20;;;3.80;;
9304;SDS011;4690;52.422;13.486;2023-12-20T08:23:35;9.43;;;3.20;;
9304;SDS011;4690;52.422;13.486;2023-12-20T08:26:07;13.23;;;3.60;;
9304;SDS011;4690;52.422;13.486;2023-12-20T08:28:33;13.00;;;3.50;;
9304;SDS011;4690;52.422;13.486;2023-12-20T08:30:59;16.20;;;3.70;;
9304;SDS011;4690;52.422;13.486;2023-12-20T08:33:25;13.70;;;3.47;;
9304;SDS011;4690;52.422;13.486;2023-12-20T08:35:51;9.27;;;3.60;;
9304;SDS011;4690;52.422;13.486;2023-12-20T08:38:17;12.07;;;3.50;;
9304;SDS011;4690;52.422;13.486;2023-12-20T08:40:43;11.27;;;3.37;;
9304;SDS011;4690;52.422;13.486;2023-12-20T08:43:09;13.43;;;3.47;;
9304;SDS011;4690;52.422;13.486;2023-12-20T08:45:35;12.53;;;3.63;;
9304;SDS011;4690;52.422;13.486;2023-12-20T08:48:01;12.43;;;3.50;;
9304;SDS011;4690;52.422;13.486;2023-12-20T08:50:28;9.60;;;3.80;;
9304;SDS011;4690;52.422;13.486;2023-12-20T08:52:54;12.50;;;3.50;;
9304;SDS011;4690;52.422;13.486;2023-12-20T08:55:20;10.20;;;3.53;;
9304;SDS011;4690;52.422;13.486;2023-12-20T08:57:45;11.03;;;3.20;;
9304;SDS011;4690;52.422;13.486;2023-12-20T09:00:12;14.83;;;3.47;;
9304;SDS011;4690;52.422;13.486;2023-12-20T09:02:38;10.20;;;3.50;;
9304;SDS011;4690;52.422;13.486;2023-12-20T09:05:04;8.70;;;3.27;;
9304;SDS011;4690;52.422;13.486;2023-12-20T09:07:30;10.50;;;3.10;;
9304;SDS011;4690;52.422;13.486;2023-12-20T09:09:57;9.37;;;3.47;;
9304;SDS011;4690;52.422;13.486;2023-12-20T09:12:24;12.73;;;3.37;;
9304;SDS011;4690;52.422;13.486;2023-12-20T09:14:50;10.33;;;3.50;;
9304;SDS011;4690;52.422;13.486;2023-12-20T09:17:17;8.97;;;3.10;;
9304;SDS011;4690;52.422;13.486;2023-12-20T09:19:44;9.13;;;3.10;;
9304;SDS011;4690;52.422;13.486;2023-12-20T09:22:10;11.70;;;3.30;;
9304;SDS011;4690;52.422;13.486;2023-12-20T09:24:36;11.33;;;3.10;;
9304;SDS011;4690;52.422;13.486;2023-12-20T09:27:03;9.03;;;3.27;;
9304;SDS011;4690;52.422;13.486;2023-12-20T09:29:30;9.87;;;3.13;;
9304;SDS011;4690;52.422;13.486;2023-12-20T09:31:56;7.73;;;3.00;;
9304;SDS011;4690;52.422;13.486;2023-12-20T09:34:22;8.43;;;2.70;;
9304;SDS011;4690;52.422;13.486;2023-12-20T09:36:49;10.00;;;3.13;;
9304;SDS011;4690;52.422;13.486;2023-12-20T09:39:18;8.60;;;2.77;;
9304;SDS011;4690;52.422;13.486;2023-12-20T09:41:49;9.03;;;2.73;;
9304;SDS011;4690;52.422;13.486;2023-12-20T09:44:29;7.33;;;2.73;;
9304;SDS011;4690;52.422;13.486;2023-12-20T09:46:57;9.43;;;3.00;;
9304;SDS011;4690;52.422;13.486;2023-12-20T09:49:23;8.60;;;3.07;;
9304;SDS011;4690;52.422;13.486;2023-12-20T09:51:53;9.83;;;2.97;;
9304;SDS011;4690;52.422;13.486;2023-12-20T09:54:20;9.47;;;2.83;;
9304;SDS011;4690;52.422;13.486;2023-12-20T09:56:47;10.67;;;3.00;;
9304;SDS011;4690;52.422;13.486;2023-12-20T09:59:14;7.33;;;2.83;;
9304;SDS011;4690;52.422;13.486;2023-12-20T10:01:40;6.53;;;2.73;;
9304;SDS011;4690;52.422;13.486;2023-12-20T10:04:10;9.93;;;3.10;;
9304;SDS011;4690;52.422;13.486;2023-12-20T10:06:41;8.40;;;2.77;;
9304;SDS011;4690;52.422;13.486;2023-12-20T10:09:08;9.20;;;2.90;;
9304;SDS011;4690;52.422;13.486;2023-12-20T10:11:35;7.03;;;2.97;;
9304;SDS011;4690;52.422;13.486;2023-12-20T10:14:02;9.70;;;3.10;;
9304;SDS011;4690;52.422;13.486;2023-12-20T10:16:30;7.03;;;2.47;;
9304;SDS011;4690;52.422;13.486;2023-12-20T10:18:57;8.93;;;3.30;;
9304;SDS011;4690;52.422;13.486;2023-12-20T10:21:25;10.53;;;3.67;;
9304;SDS011;4690;52.422;13.486;2023-12-20T10:23:52;10.63;;;3.30;;
9304;SDS011;4690;52.422;13.486;2023-12-20T10:26:23;8.53;;;3.23;;
9304;SDS011;4690;52.422;13.486;2023-12-20T10:28:53;11.03;;;3.17;;
9304;SDS011;4690;52.422;13.486;2023-12-20T10:31:31;9.40;;;3.23;;
9304;SDS011;4690;52.422;13.486;2023-12-20T10:33:59;10.73;;;3.20;;
9304;SDS011;4690;52.422;13.486;2023-12-20T10:36:31;12.10;;;3.27;;
9304;SDS011;4690;52.422;13.486;2023-12-20T10:38:58;7.40;;;3.20;;
9304;SDS011;4690;52.422;13.486;2023-12-20T10:41:28;9.03;;;3.07;;
9304;SDS011;4690;52.422;13.486;2023-12-20T10:43:58;11.47;;;3.40;;
9304;SDS011;4690;52.422;13.486;2023-12-20T10:46:30;8.80;;;3.10;;
9304;SDS011;4690;52.422;13.486;2023-12-20T10:48:59;10.93;;;3.13;;
9304;SDS011;4690;52.422;13.486;2023-12-20T10:51:27;10.90;;;3.30;;
9304;SDS011;4690;52.422;13.486;2023-12-20T10:53:55;8.53;;;3.30;;
9304;SDS011;4690;52.422;13.486;2023-12-20T10:56:21;8.17;;;3.50;;
9304;SDS011;4690;52.422;13.486;2023-12-20T10:58:51;7.07;;;3.20;;
9304;SDS011;4690;52.422;13.486;2023-12-20T11:01:18;10.43;;;3.50;;
9304;SDS011;4690;52.422;13.486;2023-12-20T11:03:54;9.27;;;3.10;;
9304;SDS011;4690;52.422;13.486;2023-12-20T11:15:17;12.20;;;3.73;;
9304;SDS011;4690;52.422;13.486;2023-12-20T11:17:45;11.10;;;3.30;;
9304;SDS011;4690;52.422;13.486;2023-12-20T11:20:11;10.07;;;3.60;;
9304;SDS011;4690;52.422;13.486;2023-12-20T11:22:39;11.10;;;3.43;;
9304;SDS011;4690;52.422;13.486;2023-12-20T11:25:17;11.17;;;3.30;;
9304;SDS011;4690;52.422;13.486;2023-12-20T11:27:43;9.67;;;3.50;;
9304;SDS011;4690;52.422;13.486;2023-12-20T11:30:10;10.33;;;3.37;;
9304;SDS011;4690;52.422;13.486;2023-12-20T11:32:36;9.83;;;3.23;;
9304;SDS011;4690;52.422;13.486;2023-12-20T11:37:38;10.43;;;3.40;;
9304;SDS011;4690;52.422;13.486;2023-12-20T11:40:11;10.50;;;4.23;;
9304;SDS011;4690;52.422;13.486;2023-12-20T11:42:40;11.93;;;3.60;;
9304;SDS011;4690;52.422;13.486;2023-12-20T11:45:14;9.90;;;3.30;;
9304;SDS011;4690;52.422;13.486;2023-12-20T11:47:45;10.93;;;3.70;;
9304;SDS011;4690;52.422;13.486;2023-12-20T11:50:15;9.33;;;2.93;;
9304;SDS011;4690;52.422;13.486;2023-12-20T11:52:41;7.97;;;2.77;;
9304;SDS011;4690;52.422;13.486;2023-12-20T11:55:07;9.27;;;3.07;;
9304;SDS011;4690;52.422;13.486;2023-12-20T11:57:33;11.63;;;3.63;;
9304;SDS011;4690;52.422;13.486;2023-12-20T11:59:59;8.43;;;3.13;;
9304;SDS011;4690;52.422;13.486;2023-12-20T12:02:24;9.83;;;4.07;;
9304;SDS011;4690;52.422;13.486;2023-12-20T12:04:50;10.73;;;3.30;;
9304;SDS011;4690;52.422;13.486;2023-12-20T12:07:16;10.03;;;3.33;;
9304;SDS011;4690;52.422;13.486;2023-12-20T12:09:42;7.83;;;3.37;;
9304;SDS011;4690;52.422;13.486;2023-12-20T12:12:09;8.30;;;3.37;;
9304;SDS011;4690;52.422;13.486;2023-12-20T12:14:37;6.50;;;3.10;;
9304;SDS011;4690;52.422;13.486;2023-12-20T12:17:09;11.07;;;3.40;;
9304;SDS011;4690;52.422;13.486;2023-12-20T12:19:42;9.97;;;3.17;;
9304;SDS011;4690;52.422;13.486;2023-12-20T12:22:09;10.07;;;3.30;;
9304;SDS011;4690;52.422;13.486;2023-12-20T12:24:39;8.27;;;3.07;;
9304;SDS011;4690;52.422;13.486;2023-12-20T12:27:06;8.03;;;2.90;;
9304;SDS011;4690;52.422;13.486;2023-12-20T12:29:33;10.43;;;3.13;;
9304;SDS011;4690;52.422;13.486;2023-12-20T12:31:59;7.90;;;3.17;;
9304;SDS011;4690;52.422;13.486;2023-12-20T12:34:29;7.73;;;2.70;;
9304;SDS011;4690;52.422;13.486;2023-12-20T12:36:55;7.27;;;3.00;;
9304;SDS011;4690;52.422;13.486;2023-12-20T12:39:23;8.90;;;3.13;;
9304;SDS011;4690;52.422;13.486;2023-12-20T12:41:52;10.30;;;3.10;;
9304;SDS011;4690;52.422;13.486;2023-12-20T12:44:18;8.13;;;3.30;;
9304;SDS011;4690;52.422;13.486;2023-12-20T12:46:47;9.93;;;3.43;;
9304;SDS011;4690;52.422;13.486;2023-12-20T12:49:16;7.67;;;3.20;;
9304;SDS011;4690;52.422;13.486;2023-12-20T12:51:42;8.03;;;3.53;;
9304;SDS011;4690;52.422;13.486;2023-12-20T12:54:09;11.17;;;3.43;;
9304;SDS011;4690;52.422;13.486;2023-12-20T12:56:35;9.27;;;3.37;;
9304;SDS011;4690;52.422;13.486;2023-12-20T12:59:02;11.73;;;3.10;;
9304;SDS011;4690;52.422;13.486;2023-12-20T13:01:28;8.40;;;3.60;;
9304;SDS011;4690;52.422;13.486;2023-12-20T13:03:53;7.87;;;3.80;;
9304;SDS011;4690;52.422;13.486;2023-12-20T13:06:19;9.90;;;4.30;;
9304;SDS011;4690;52.422;13.486;2023-12-20T13:08:45;9.23;;;4.20;;
9304;SDS011;4690;52.422;13.486;2023-12-20T13:11:11;9.27;;;4.33;;
9304;SDS011;4690;52.422;13.486;2023-12-20T13:13:37;8.80;;;4.10;;
9304;SDS011;4690;52.422;13.486;2023-12-20T13:16:03;10.07;;;4.30;;
9304;SDS011;4690;52.422;13.486;2023-12-20T13:18:29;13.37;;;4.83;;
9304;SDS011;4690;52.422;13.486;2023-12-20T13:20:54;11.03;;;4.93;;
9304;SDS011;4690;52.422;13.486;2023-12-20T13:23:20;11.70;;;4.80;;
9304;SDS011;4690;52.422;13.486;2023-12-20T13:25:46;8.53;;;4.80;;
9304;SDS011;4690;52.422;13.486;2023-12-20T13:28:12;13.80;;;6.30;;
9304;SDS011;4690;52.422;13.486;2023-12-20T13:30:39;12.83;;;6.47;;
9304;SDS011;4690;52.422;13.486;2023-12-20T13:33:05;14.10;;;6.10;;
9304;SDS011;4690;52.422;13.486;2023-12-20T13:35:32;19.87;;;6.07;;
9304;SDS011;4690;52.422;13.486;2023-12-20T13:37:59;12.47;;;5.33;;
9304;SDS011;4690;52.422;13.486;2023-12-20T13:40:25;15.43;;;6.33;;
9304;SDS011;4690;52.422;13.486;2023-12-20T13:42:51;10.63;;;4.83;;
9304;SDS011;4690;52.422;13.486;2023-12-20T13:45:17;12.73;;;5.17;;
9304;SDS011;4690;52.422;13.486;2023-12-20T13:47:43;8.97;;;4.73;;
9304;SDS011;4690;52.422;13.486;2023-12-20T13:50:09;9.30;;;5.40;;
9304;SDS011;4690;52.422;13.486;2023-12-20T13:52:35;8.10;;;3.70;;
9304;SDS011;4690;52.422;13.486;2023-12-20T13:55:01;4.47;;;2.53;;
9304;SDS011;4690;52.422;13.486;2023-12-20T13:57:27;5.23;;;2.73;;
9304;SDS011;4690;52.422;13.486;2023-12-20T13:59:54;3.87;;;2.37;;
9304;SDS011;4690;52.422;13.486;2023-12-20T14:02:22;4.83;;;2.57;;
9304;SDS011;4690;52.422;13.486;2023-12-20T14:04:48;3.87;;;2.40;;
9304;SDS011;4690;52.422;13.486;2023-12-20T14:07:14;3.27;;;1.90;;
9304;SDS011;4690;52.422;13.486;2023-12-20T14:09:40;4.90;;;2.23;;
9304;SDS011;4690;52.422;13.486;2023-12-20T14:12:10;3.33;;;1.90;;
9304;SDS011;4690;52.422;13.486;2023-12-20T14:14:37;3.43;;;1.70;;
9304;SDS011;4690;52.422;13.486;2023-12-20T14:17:03;2.67;;;1.63;;
9304;SDS011;4690;52.422;13.486;2023-12-20T14:19:31;3.43;;;1.70;;
9304;SDS011;4690;52.422;13.486;2023-12-20T14:21:57;3.13;;;1.83;;
9304;SDS011;4690;52.422;13.486;2023-12-20T14:24:26;4.87;;;2.00;;
9304;SDS011;4690;52.422;13.486;2023-12-20T14:26:53;1.87;;;1.67;;
9304;SDS011;4690;52.422;13.486;2023-12-20T14:29:18;3.40;;;1.80;;
9304;SDS011;4690;52.422;13.486;2023-12-20T14:31:44;3.47;;;1.60;;
9304;SDS011;4690;52.422;13.486;2023-12-20T14:34:10;3.13;;;1.70;;
9304;SDS011;4690;52.422;13.486;2023-12-20T14:36:36;4.70;;;1.80;;
9304;SDS011;4690;52.422;13.486;2023-12-20T14:39:03;4.20;;;1.90;;
9304;SDS011;4690;52.422;13.486;2023-12-20T14:41:29;2.67;;;1.60;;
9304;SDS011;4690;52.422;13.486;2023-12-20T14:43:56;1.87;;;1.67;;
9304;SDS011;4690;52.422;13.486;2023-12-20T14:46:21;3.20;;;1.80;;
9304;SDS011;4690;52.422;13.486;2023-12-20T14:48:47;3.40;;;2.00;;
9304;SDS011;4690;52.422;13.486;2023-12-20T14:51:14;5.80;;;2.10;;
9304;SDS011;4690;52.422;13.486;2023-12-20T14:53:40;5.03;;;2.27;;
9304;SDS011;4690;52.422;13.486;2023-12-20T14:56:07;4.50;;;2.07;;
9304;SDS011;4690;52.422;13.486;2023-12-20T14:58:33;3.17;;;2.07;;
9304;SDS011;4690;52.422;13.486;2023-12-20T15:00:59;6.30;;;2.30;;
9304;SDS011;4690;52.422;13.486;2023-12-20T15:03:25;5.87;;;2.37;;